createdAt,value
2022-11-10T00:01:27.976Z,100521.72
2022-11-10T00:04:48.739Z,100525.44
2022-11-10T00:08:11.381Z,100531.69
2022-11-10T00:11:31.616Z,100539.19
2022-11-10T00:15:10.521Z,100531.03
2022-11-10T00:18:30.695Z,100547.47
2022-11-10T00:21:50.768Z,100549.34
2022-11-10T00:25:12.451Z,100553.59
2022-11-10T00:28:32.595Z,100554.59
2022-11-10T00:31:52.929Z,100554.44
2022-11-10T00:35:13.375Z,100569.19
2022-11-10T00:38:33.547Z,100577.31
2022-11-10T00:41:53.408Z,100572.03
2022-11-10T00:45:13.847Z,100568.47
2022-11-10T00:48:34.325Z,100575.94
2022-11-10T00:51:54.827Z,100576.09
2022-11-10T00:55:15.248Z,100581.53
2022-11-10T00:58:35.633Z,100578.97
2022-11-10T01:01:55.847Z,100579.28
2022-11-10T01:05:16.224Z,100597.44
2022-11-10T01:08:37.182Z,100595.72
2022-11-10T01:11:57.533Z,100603.19
2022-11-10T01:15:18.201Z,100603.19
2022-11-10T01:18:40.417Z,100608.75
2022-11-10T01:22:01.079Z,100608.75
2022-11-10T01:25:21.281Z,100613.50
2022-11-10T01:28:41.978Z,100613.50
2022-11-10T01:32:02.103Z,100625.38
2022-11-10T01:35:22.452Z,100627.22
2022-11-10T01:38:42.978Z,100627.22
2022-11-10T01:42:03.312Z,100631.97
2022-11-10T01:45:23.514Z,100628.53
2022-11-10T01:49:00.187Z,100632.09
2022-11-10T01:52:20.481Z,100636.81
2022-11-10T01:55:43.767Z,100626.84
2022-11-10T01:59:09.894Z,100637.69
2022-11-10T02:02:42.924Z,100643.28
2022-11-10T02:06:04.322Z,100647.16
2022-11-10T02:09:25.199Z,100649.00
2022-11-10T02:12:46.514Z,100658.16
2022-11-10T02:16:07.076Z,100668.16
2022-11-10T02:19:27.862Z,100659.16
2022-11-10T02:22:48.220Z,100656.44
2022-11-10T02:26:08.543Z,100656.75
2022-11-10T02:29:28.846Z,100660.31
2022-11-10T02:32:49.039Z,100666.78
2022-11-10T02:36:09.645Z,100662.19
2022-11-10T02:39:30.013Z,100681.19
2022-11-10T02:42:50.359Z,100686.63
2022-11-10T02:46:10.629Z,100685.59
2022-11-10T02:49:30.864Z,100684.59
2022-11-10T02:52:51.046Z,100688.31
2022-11-10T02:56:11.859Z,100692.03
2022-11-10T02:59:31.940Z,100710.00
2022-11-10T03:03:02.090Z,100705.59
2022-11-10T03:06:22.440Z,100695.75
2022-11-10T03:09:42.842Z,100690.31
2022-11-10T03:13:03.521Z,100694.88
2022-11-10T03:16:23.416Z,100712.91
2022-11-10T03:19:43.674Z,100713.88
2022-11-10T03:23:04.491Z,100714.72
2022-11-10T03:26:24.813Z,100711.16
2022-11-10T03:29:45.021Z,100718.47
2022-11-10T03:33:06.033Z,100727.44
2022-11-10T03:36:26.053Z,100732.03
2022-11-10T03:39:46.197Z,100724.72
2022-11-10T03:43:06.466Z,100731.19
2022-11-10T03:46:26.634Z,100735.59
2022-11-10T03:49:46.794Z,100732.03
2022-11-10T03:53:07.120Z,100744.75
2022-11-10T03:56:27.166Z,100735.75
2022-11-10T03:59:47.170Z,100746.59
2022-11-10T04:03:07.175Z,100748.44
2022-11-10T04:06:46.058Z,100755.72
2022-11-10T04:10:07.056Z,100760.19
2022-11-10T04:13:45.947Z,100768.44
2022-11-10T04:17:06.369Z,100781.00
2022-11-10T04:20:26.485Z,100771.03
2022-11-10T04:23:46.365Z,100771.69
2022-11-10T04:27:06.127Z,100778.84
2022-11-10T04:30:26.375Z,100782.28
2022-11-10T04:33:47.668Z,100780.25
2022-11-10T04:37:07.761Z,100790.09
2022-11-10T04:40:27.652Z,100791.97
2022-11-10T04:43:47.800Z,100808.09
2022-11-10T04:47:11.667Z,100812.66
2022-11-10T04:50:32.449Z,100813.50
2022-11-10T04:53:52.635Z,100825.22
2022-11-10T04:57:13.069Z,100827.94
2022-11-10T05:00:34.446Z,100841.50
2022-11-10T05:03:55.659Z,100836.06
2022-11-10T05:07:15.839Z,100852.34
2022-11-10T05:10:37.490Z,100852.34
2022-11-10T05:13:57.465Z,100850.66
2022-11-10T05:17:17.769Z,100851.50
2022-11-10T05:20:37.979Z,100862.34
2022-11-10T05:23:58.139Z,100865.06
2022-11-10T05:27:18.077Z,100865.22
2022-11-10T05:30:39.572Z,100875.06
2022-11-10T05:33:59.732Z,100870.66
2022-11-10T05:37:19.854Z,100877.91
2022-11-10T05:40:40.072Z,100877.25
2022-11-10T05:43:59.959Z,100885.38
2022-11-10T05:47:20.241Z,100887.06
2022-11-10T05:50:40.611Z,100880.09
2022-11-10T05:54:00.897Z,100883.66
2022-11-10T05:57:21.879Z,100893.66
2022-11-10T06:00:42.082Z,100892.81
2022-11-10T06:04:02.296Z,100901.94
2022-11-10T06:07:22.455Z,100914.50
2022-11-10T06:10:42.400Z,100929.94
2022-11-10T06:14:02.498Z,100927.22
2022-11-10T06:17:22.850Z,100928.78
2022-11-10T06:20:42.692Z,100939.47
2022-11-10T06:24:02.864Z,100958.47
2022-11-10T06:27:23.001Z,100962.91
2022-11-10T06:30:43.063Z,100960.22
2022-11-10T06:34:03.296Z,100967.34
2022-11-10T06:37:23.474Z,100979.75
2022-11-10T06:40:43.669Z,100987.03
2022-11-10T06:44:03.829Z,100983.31
2022-11-10T06:47:23.750Z,100993.19
2022-11-10T06:50:44.015Z,100995.91
2022-11-10T06:54:04.261Z,101000.31
2022-11-10T06:57:24.408Z,101009.28
2022-11-10T07:00:44.559Z,101021.16
2022-11-10T07:04:19.127Z,101014.88
2022-11-10T07:07:39.925Z,101019.31
2022-11-10T07:11:00.168Z,101027.44
2022-11-10T07:14:20.221Z,101030.16
2022-11-10T07:17:41.061Z,101029.31
2022-11-10T07:21:06.012Z,101034.75
2022-11-10T07:24:26.427Z,101039.44
2022-11-10T07:27:46.641Z,101037.75
2022-11-10T07:31:06.616Z,101054.03
2022-11-10T07:34:26.612Z,101056.88
2022-11-10T07:37:46.700Z,101062.31
2022-11-10T07:41:06.757Z,101060.59
2022-11-10T07:44:27.727Z,101069.72
2022-11-10T07:47:48.082Z,101078.72
2022-11-10T07:51:08.507Z,101079.72
2022-11-10T07:54:28.598Z,101090.72
2022-11-10T07:57:48.834Z,101092.56
2022-11-10T08:01:10.101Z,101102.44
2022-11-10T08:04:30.057Z,101111.56
2022-11-10T08:07:50.155Z,101115.31
2022-11-10T08:11:10.321Z,101127.13
2022-11-10T08:14:30.275Z,101137.97
2022-11-10T08:17:50.521Z,101165.13
2022-11-10T08:21:10.848Z,101166.97
2022-11-10T08:24:31.293Z,101173.41
2022-11-10T08:27:57.921Z,101178.69
2022-11-10T08:31:18.228Z,101175.28
2022-11-10T08:34:38.422Z,101185.25
2022-11-10T08:37:58.449Z,101192.53
2022-11-10T08:41:18.801Z,101199.84
2022-11-10T08:44:39.012Z,101197.13
2022-11-10T08:48:05.187Z,101214.25
2022-11-10T08:51:25.113Z,101208.09
2022-11-10T08:54:45.094Z,101199.97
2022-11-10T08:58:06.523Z,101200.84
2022-11-10T09:01:26.824Z,101213.69
2022-11-10T09:04:47.216Z,101212.84
2022-11-10T09:08:07.936Z,101216.41
2022-11-10T09:11:27.900Z,101220.97
2022-11-10T09:14:48.204Z,101229.13
2022-11-10T09:18:10.164Z,101242.81
2022-11-10T09:21:30.605Z,101252.81
2022-11-10T09:24:50.702Z,101256.38
2022-11-10T09:28:14.425Z,101260.78
2022-11-10T09:31:34.458Z,101260.06
2022-11-10T09:34:54.301Z,101242.03
2022-11-10T09:38:14.541Z,101237.47
2022-11-10T09:41:40.241Z,101255.53
2022-11-10T09:45:04.926Z,101265.50
2022-11-10T09:48:32.812Z,101261.88
2022-11-10T09:51:53.850Z,101275.63
2022-11-10T09:55:48.939Z,101255.63
2022-11-10T09:59:30.507Z,101262.78
2022-11-10T10:03:01.931Z,101264.75
2022-11-10T10:06:22.539Z,101264.03
2022-11-10T10:10:01.433Z,101258.47
2022-11-10T10:13:36.416Z,101265.75
2022-11-10T10:17:17.994Z,101263.91
2022-11-10T10:20:47.128Z,101261.19
2022-11-10T10:24:21.491Z,101264.16
2022-11-10T10:27:45.163Z,101273.19
2022-11-10T10:31:39.649Z,101280.31
2022-11-10T10:34:59.677Z,101274.16
2022-11-10T10:38:35.764Z,101271.31
2022-11-10T10:41:55.739Z,101271.59
2022-11-10T10:45:29.757Z,101271.31
2022-11-10T10:49:32.994Z,101269.47
2022-11-10T10:53:19.650Z,101271.44
2022-11-10T10:56:39.796Z,101276.03
2022-11-10T11:00:15.494Z,101270.59
2022-11-10T11:03:38.707Z,101285.88
2022-11-10T11:07:04.723Z,101293.88
2022-11-10T11:10:35.447Z,101286.88
2022-11-10T11:14:12.909Z,101293.03
2022-11-10T11:17:32.846Z,101285.00
2022-11-10T11:21:20.144Z,101284.88
2022-11-10T11:25:06.247Z,101294.88
2022-11-10T11:28:41.243Z,101298.44
2022-11-10T11:32:39.330Z,101307.56
2022-11-10T11:36:18.155Z,101311.16
2022-11-10T11:40:00.116Z,101306.59
2022-11-10T11:43:28.525Z,101324.72
2022-11-10T11:47:19.856Z,101331.00
2022-11-10T11:51:01.295Z,101331.84
2022-11-10T11:54:24.079Z,101331.28
2022-11-10T11:58:02.808Z,101333.00
2022-11-10T12:01:43.895Z,101336.56
2022-11-10T12:05:25.854Z,101343.72
2022-11-10T12:08:46.387Z,101341.25
2022-11-10T12:12:26.947Z,101343.84
2022-11-10T12:15:58.771Z,101353.97
2022-11-10T12:19:38.944Z,101355.53
2022-11-10T12:23:10.027Z,101355.81
2022-11-10T12:26:35.198Z,101364.97
2022-11-10T12:29:59.481Z,101366.69
2022-11-10T12:33:45.002Z,101364.81
2022-11-10T12:37:07.641Z,101371.97
2022-11-10T12:40:36.976Z,101362.09
2022-11-10T12:44:00.164Z,101357.69
2022-11-10T12:47:22.767Z,101352.09
2022-11-10T12:50:53.886Z,101358.25
2022-11-10T12:54:17.468Z,101354.69
2022-11-10T12:57:38.357Z,101354.69
2022-11-10T13:01:06.860Z,101358.97
2022-11-10T13:04:27.731Z,101356.41
2022-11-10T13:07:50.350Z,101365.41
2022-11-10T13:11:13.635Z,101369.00
2022-11-10T13:14:34.479Z,101372.69
2022-11-10T13:17:55.531Z,101378.09
2022-11-10T13:21:15.886Z,101392.66
2022-11-10T13:24:42.307Z,101405.09
2022-11-10T13:28:03.841Z,101400.81
2022-11-10T13:31:27.032Z,101401.66
2022-11-10T13:34:47.643Z,101410.81
2022-11-10T13:38:34.269Z,101407.09
2022-11-10T13:42:23.900Z,101408.09
2022-11-10T13:45:45.752Z,101410.94
2022-11-10T13:49:43.415Z,101418.09
2022-11-10T13:53:23.099Z,101413.66
2022-11-10T13:57:08.842Z,101418.22
2022-11-10T14:00:31.799Z,101422.91
2022-11-10T14:03:55.582Z,101426.47
2022-11-10T14:07:19.461Z,101419.22
2022-11-10T14:10:47.271Z,101417.47
2022-11-10T14:14:39.613Z,101412.06
2022-11-10T14:18:00.679Z,101412.22
2022-11-10T14:21:36.177Z,101417.47
2022-11-10T14:25:20.757Z,101438.34
2022-11-10T14:28:41.130Z,101442.19
2022-11-10T14:32:19.963Z,101452.91
2022-11-10T14:35:49.482Z,101441.16
2022-11-10T14:39:09.682Z,101436.88
2022-11-10T14:42:32.307Z,101441.31
2022-11-10T14:45:55.131Z,101438.59
2022-11-10T14:49:21.581Z,101447.59
2022-11-10T14:52:43.823Z,101437.75
2022-11-10T14:56:15.132Z,101447.72
2022-11-10T14:59:37.620Z,101445.00
2022-11-10T15:02:58.381Z,101444.16
2022-11-10T15:06:19.791Z,101436.00
2022-11-10T15:09:41.230Z,101453.28
2022-11-10T15:13:17.454Z,101456.88
2022-11-10T15:16:38.522Z,101464.16
2022-11-10T15:19:58.778Z,101459.84
2022-11-10T15:23:33.463Z,101466.84
2022-11-10T15:26:54.257Z,101471.66
2022-11-10T15:30:23.310Z,101475.97
2022-11-10T15:33:51.548Z,101485.97
2022-11-10T15:37:20.467Z,101468.97
2022-11-10T15:40:52.323Z,101467.97
2022-11-10T15:44:25.781Z,101477.97
2022-11-10T15:47:46.075Z,101478.09
2022-11-10T15:51:08.709Z,101472.56
2022-11-10T15:54:33.669Z,101487.81
2022-11-10T15:57:53.881Z,101496.69
2022-11-10T16:01:15.451Z,101493.84
2022-11-10T16:04:35.737Z,101491.84
2022-11-10T16:07:55.693Z,101496.31
2022-11-10T16:11:20.911Z,101493.31
2022-11-10T16:14:43.788Z,101486.88
2022-11-10T16:18:04.401Z,101490.44
2022-11-10T16:21:25.991Z,101507.47
2022-11-10T16:24:45.922Z,101498.47
2022-11-10T16:28:06.484Z,101505.47
2022-11-10T16:31:27.697Z,101505.47
2022-11-10T16:34:47.731Z,101512.03
2022-11-10T16:38:18.444Z,101512.63
2022-11-10T16:41:38.861Z,101522.63
2022-11-10T16:44:59.207Z,101532.50
2022-11-10T16:48:23.203Z,101548.53
2022-11-10T16:51:48.859Z,101548.53
2022-11-10T16:55:13.826Z,101541.13
2022-11-10T16:58:33.962Z,101537.41
2022-11-10T17:01:54.591Z,101523.84
2022-11-10T17:05:15.623Z,101530.00
2022-11-10T17:08:36.111Z,101536.41
2022-11-10T17:11:56.268Z,101540.69
2022-11-10T17:15:16.830Z,101553.31
2022-11-10T17:18:37.533Z,101555.00
2022-11-10T17:21:57.478Z,101555.16
2022-11-10T17:25:26.885Z,101563.03
2022-11-10T17:28:47.051Z,101564.88
2022-11-10T17:32:07.337Z,101563.88
2022-11-10T17:35:27.401Z,101559.03
2022-11-10T17:38:47.820Z,101555.19
2022-11-10T17:42:13.469Z,101554.22
2022-11-10T17:45:33.545Z,101560.63
2022-11-10T17:49:00.107Z,101555.06
2022-11-10T17:52:22.618Z,101562.22
2022-11-10T17:55:42.683Z,101560.09
2022-11-10T17:59:02.565Z,101561.69
2022-11-10T18:02:22.442Z,101558.72
2022-11-10T18:05:43.069Z,101557.59
2022-11-10T18:09:03.030Z,101560.16
2022-11-10T18:12:27.747Z,101575.19
2022-11-10T18:15:48.867Z,101569.63
2022-11-10T18:19:11.096Z,101572.19
2022-11-10T18:22:31.450Z,101562.22
2022-11-10T18:25:51.537Z,101573.78
2022-11-10T18:29:11.792Z,101572.81
2022-11-10T18:32:32.217Z,101575.50
2022-11-10T18:35:52.502Z,101575.34
2022-11-10T18:39:12.751Z,101567.94
2022-11-10T18:42:34.311Z,101567.81
2022-11-10T18:45:54.605Z,101560.41
2022-11-10T18:49:15.653Z,101564.56
2022-11-10T18:52:35.955Z,101567.44
2022-11-10T18:55:56.146Z,101569.13
2022-11-10T18:59:16.282Z,101571.72
2022-11-10T19:02:36.176Z,101565.41
2022-11-10T19:05:59.690Z,101578.75
2022-11-10T19:09:19.808Z,101568.84
2022-11-10T19:12:40.018Z,101569.59
2022-11-10T19:16:04.484Z,101563.03
2022-11-10T19:19:24.916Z,101568.44
2022-11-10T19:22:45.102Z,101568.34
2022-11-10T19:26:17.877Z,101573.59
2022-11-10T19:29:41.238Z,101593.47
2022-11-10T19:33:01.534Z,101593.47
2022-11-10T19:36:26.613Z,101601.50
2022-11-10T19:39:46.565Z,101602.50
2022-11-10T19:43:06.620Z,101589.91
2022-11-10T19:46:29.504Z,101587.34
2022-11-10T19:49:49.606Z,101586.44
2022-11-10T19:53:09.482Z,101585.75
2022-11-10T19:56:33.474Z,101584.75
2022-11-10T19:59:53.635Z,101583.03
2022-11-10T20:03:14.834Z,101605.63
2022-11-10T20:06:34.769Z,101606.75
2022-11-10T20:09:55.699Z,101616.59
2022-11-10T20:13:15.522Z,101621.19
2022-11-10T20:16:35.408Z,101630.19
2022-11-10T20:19:55.757Z,101620.34
2022-11-10T20:23:16.704Z,101611.19
2022-11-10T20:26:36.937Z,101613.88
2022-11-10T20:29:57.261Z,101621.19
2022-11-10T20:33:17.427Z,101618.47
2022-11-10T20:36:37.320Z,101622.19
2022-11-10T20:39:57.304Z,101629.44
2022-11-10T20:43:18.447Z,101625.03
2022-11-10T20:46:55.401Z,101625.88
2022-11-10T20:50:19.287Z,101635.03
2022-11-10T20:53:43.315Z,101634.31
2022-11-10T20:57:03.459Z,101642.56
2022-11-10T21:00:23.757Z,101629.00
2022-11-10T21:03:43.976Z,101623.72
2022-11-10T21:07:04.719Z,101637.28
2022-11-10T21:10:24.891Z,101640.13
2022-11-10T21:13:44.939Z,101628.41
2022-11-10T21:17:05.003Z,101637.56
2022-11-10T21:20:25.157Z,101640.41
2022-11-10T21:23:45.025Z,101658.69
2022-11-10T21:27:05.045Z,101653.25
2022-11-10T21:30:25.308Z,101667.81
2022-11-10T21:33:45.599Z,101663.38
2022-11-10T21:37:05.542Z,101662.50
2022-11-10T21:40:25.688Z,101681.41
2022-11-10T21:43:45.653Z,101668.09
2022-11-10T21:47:06.021Z,101660.81
2022-11-10T21:50:26.430Z,101665.38
2022-11-10T21:53:46.273Z,101663.63
2022-11-10T21:57:06.391Z,101665.50
2022-11-10T22:00:26.753Z,101679.19
2022-11-10T22:03:46.997Z,101681.91
2022-11-10T22:07:23.426Z,101681.91
2022-11-10T22:11:02.438Z,101689.34
2022-11-10T22:14:41.417Z,101700.22
2022-11-10T22:18:20.807Z,101699.47
2022-11-10T22:21:41.096Z,101703.03
2022-11-10T22:25:01.243Z,101687.75
2022-11-10T22:28:21.298Z,101672.44
2022-11-10T22:31:41.694Z,101682.44
2022-11-10T22:35:01.908Z,101682.56
2022-11-10T22:38:21.974Z,101679.84
2022-11-10T22:42:00.554Z,101690.88
2022-11-10T22:45:20.777Z,101699.00
2022-11-10T22:48:40.710Z,101695.56
2022-11-10T22:52:01.276Z,101690.97
2022-11-10T22:55:21.495Z,101693.84
2022-11-10T22:58:41.669Z,101694.81
2022-11-10T23:02:01.642Z,101709.41
2022-11-10T23:05:21.808Z,101718.50
2022-11-10T23:08:41.920Z,101724.94
2022-11-10T23:12:02.247Z,101735.91
2022-11-10T23:15:23.684Z,101736.81
2022-11-10T23:18:46.283Z,101731.50
2022-11-10T23:22:06.283Z,101744.19
2022-11-10T23:25:26.174Z,101747.03
2022-11-10T23:28:46.747Z,101744.31
2022-11-10T23:32:06.831Z,101740.88
2022-11-10T23:35:26.747Z,101747.28
2022-11-10T23:38:48.653Z,101748.16
2022-11-10T23:42:09.157Z,101755.44
2022-11-10T23:45:52.670Z,101750.13
2022-11-10T23:49:09.252Z,101734.00
2022-11-10T23:52:29.117Z,101725.97
2022-11-10T23:55:59.212Z,101733.13
2022-11-10T23:59:19.397Z,101721.53
